Time;durP1;ratioP1;P1;durP2;ratioP2;P2;SDS_P1;SDS_P2;PMS_P1;PMS_P2;Temp;Humidity;BMP_temperature;BMP_pressure;BME280_temperature;BME280_humidity;BME280_pressure;Samples;Min_cycle;Max_cycle;Signal;HPM_P1;HPM_P2
2023/01/08 00:01:51;;;;;;;0.10;0.10;;;;;;;;;;7381792;19;20725;-70
2023/01/08 00:04:20;;;;;;;0.00;0.00;;;;;;;;;;7379387;19;20749;-69
2023/01/08 00:06:49;;;;;;;0.00;0.00;;;;;;;;;;7379002;19;20711;-70
2023/01/08 00:09:20;;;;;;;0.00;0.00;;;;;;;;;;7380771;19;20631;-68
2023/01/08 00:11:50;;;;;;;0.10;0.10;;;;;;;;;;7380277;19;20603;-69
2023/01/08 00:14:19;;;;;;;0.10;0.10;;;;;;;;;;7380038;19;20659;-70
2023/01/08 00:16:50;;;;;;;0.10;0.10;;;;;;;;;;7380408;19;20660;-69
2023/01/08 00:19:19;;;;;;;0.10;0.10;;;;;;;;;;7378997;19;20619;-69
2023/01/08 00:21:48;;;;;;;0.10;0.10;;;;;;;;;;7378218;19;20741;-69
2023/01/08 00:24:17;;;;;;;0.10;0.10;;;;;;;;;;7377812;19;20749;-70
2023/01/08 00:26:48;;;;;;;0.00;0.00;;;;;;;;;;7376972;19;20743;-69
2023/01/08 00:29:17;;;;;;;0.10;0.10;;;;;;;;;;7378246;19;20704;-70
2023/01/08 00:31:46;;;;;;;0.10;0.10;;;;;;;;;;7379862;19;20599;-69
2023/01/08 00:34:15;;;;;;;0.10;0.10;;;;;;;;;;7378657;19;20721;-70
2023/01/08 00:36:44;;;;;;;0.10;0.10;;;;;;;;;;7379704;19;20773;-70
2023/01/08 00:39:13;;;;;;;0.07;0.07;;;;;;;;;;7380307;19;20701;-69
2023/01/08 00:41:44;;;;;;;0.10;0.10;;;;;;;;;;7378563;19;20717;-70
2023/01/08 00:44:15;;;;;;;0.00;0.00;;;;;;;;;;7379677;19;20630;-69
2023/01/08 00:46:44;;;;;;;0.10;0.10;;;;;;;;;;7377657;19;20642;-69
2023/01/08 00:49:16;;;;;;;0.10;0.10;;;;;;;;;;7375337;19;20652;-70
2023/01/08 00:51:45;;;;;;;0.10;0.10;;;;;;;;;;7379453;19;20742;-70
2023/01/08 00:54:14;;;;;;;0.10;0.10;;;;;;;;;;7379227;19;20579;-70
2023/01/08 00:56:43;;;;;;;0.10;0.10;;;;;;;;;;7378875;19;20674;-69
2023/01/08 00:59:12;;;;;;;0.00;0.00;;;;;;;;;;7376167;19;20638;-70
2023/01/08 01:01:43;;;;;;;0.10;0.10;;;;;;;;;;7379292;19;20977;-69
2023/01/08 01:04:13;;;;;;;0.10;0.10;;;;;;;;;;7378339;19;20595;-68
2023/01/08 01:06:42;;;;;;;0.10;0.10;;;;;;;;;;7378175;19;20642;-69
2023/01/08 01:09:11;;;;;;;0.10;0.10;;;;;;;;;;7379083;19;20876;-70
2023/01/08 01:11:40;;;;;;;0.00;0.00;;;;;;;;;;7377434;19;20754;-69
2023/01/08 01:14:09;;;;;;;0.00;0.00;;;;;;;;;;7378854;19;20599;-69
2023/01/08 01:16:39;;;;;;;0.00;0.00;;;;;;;;;;7371722;19;20695;-69
2023/01/08 01:19:10;;;;;;;0.00;0.00;;;;;;;;;;7376082;19;20625;-69
2023/01/08 01:21:39;;;;;;;0.00;0.00;;;;;;;;;;7377943;19;20665;-69
2023/01/08 01:24:08;;;;;;;0.00;0.00;;;;;;;;;;7378012;19;21355;-69
2023/01/08 01:26:38;;;;;;;0.00;0.00;;;;;;;;;;7376994;19;20669;-70
2023/01/08 01:29:06;;;;;;;0.10;0.10;;;;;;;;;;7377377;19;20709;-69
2023/01/08 01:31:35;;;;;;;0.10;0.10;;;;;;;;;;7377359;19;20726;-69
2023/01/08 01:34:04;;;;;;;0.07;0.07;;;;;;;;;;7377311;19;20603;-69
2023/01/08 01:36:36;;;;;;;0.00;0.00;;;;;;;;;;7376384;19;20603;-69
2023/01/08 01:39:05;;;;;;;0.10;0.10;;;;;;;;;;7378590;19;20663;-70
2023/01/08 01:41:35;;;;;;;0.00;0.00;;;;;;;;;;7378104;19;20640;-69
2023/01/08 01:44:19;;;;;;;0.07;0.07;;;;;;;;;;7377724;19;20730;-69
2023/01/08 01:46:48;;;;;;;0.10;0.10;;;;;;;;;;7375574;19;20811;-69
2023/01/08 01:49:20;;;;;;;0.10;0.10;;;;;;;;;;7377067;19;20677;-69
2023/01/08 01:51:52;;;;;;;0.10;0.10;;;;;;;;;;7376433;19;20679;-70
2023/01/08 01:54:21;;;;;;;0.10;0.10;;;;;;;;;;7377679;19;20643;-69
2023/01/08 01:56:50;;;;;;;0.00;0.00;;;;;;;;;;7377460;19;20623;-69
2023/01/08 01:59:19;;;;;;;0.00;0.00;;;;;;;;;;7376648;19;20657;-70
2023/01/08 02:01:48;;;;;;;0.10;0.10;;;;;;;;;;7376075;19;20693;-69
2023/01/08 02:04:17;;;;;;;0.10;0.10;;;;;;;;;;7375069;19;20626;-69
2023/01/08 02:06:49;;;;;;;0.00;0.00;;;;;;;;;;7374849;19;20659;-69
2023/01/08 02:09:26;;;;;;;0.00;0.00;;;;;;;;;;7375961;19;20611;-69
2023/01/08 02:14:41;;;;;;;0.10;0.10;;;;;;;;;;7373652;19;20635;-70
2023/01/08 02:17:12;;;;;;;0.10;0.10;;;;;;;;;;7375228;19;21015;-69
2023/01/08 02:19:44;;;;;;;0.10;0.10;;;;;;;;;;7373416;19;20753;-70
2023/01/08 02:22:17;;;;;;;0.10;0.10;;;;;;;;;;7375571;19;20631;-69
2023/01/08 02:24:55;;;;;;;0.00;0.00;;;;;;;;;;7375926;19;20667;-70
2023/01/08 02:27:27;;;;;;;0.00;0.00;;;;;;;;;;7375070;19;20634;-68
2023/01/08 02:29:57;;;;;;;0.10;0.10;;;;;;;;;;7375067;19;20627;-68
2023/01/08 02:32:28;;;;;;;0.10;0.10;;;;;;;;;;7371846;19;20995;-69
2023/01/08 02:34:57;;;;;;;0.00;0.00;;;;;;;;;;7373101;19;20602;-69
2023/01/08 02:37:26;;;;;;;0.10;0.10;;;;;;;;;;7372202;19;20723;-69
2023/01/08 02:40:02;;;;;;;0.00;0.00;;;;;;;;;;7374354;19;20611;-69
2023/01/08 02:42:37;;;;;;;0.10;0.10;;;;;;;;;;7373043;19;20614;-70
2023/01/08 02:45:10;;;;;;;0.10;0.10;;;;;;;;;;7372999;19;20630;-69
2023/01/08 02:47:41;;;;;;;0.10;0.10;;;;;;;;;;7371824;19;20729;-69
2023/01/08 02:50:14;;;;;;;0.10;0.10;;;;;;;;;;7374335;19;20627;-69
2023/01/08 02:52:47;;;;;;;0.00;0.00;;;;;;;;;;7372988;19;20721;-69
2023/01/08 02:55:16;;;;;;;0.10;0.10;;;;;;;;;;7373950;19;20671;-70
2023/01/08 02:57:48;;;;;;;0.00;0.00;;;;;;;;;;7374357;19;20729;-70
2023/01/08 03:00:17;;;;;;;0.10;0.10;;;;;;;;;;7373767;19;20753;-69
2023/01/08 03:02:46;;;;;;;0.00;0.00;;;;;;;;;;7373501;19;21452;-69
2023/01/08 03:05:18;;;;;;;0.10;0.10;;;;;;;;;;7372542;19;20679;-69
2023/01/08 03:07:47;;;;;;;0.03;0.03;;;;;;;;;;7371492;19;20796;-69
2023/01/08 03:10:15;;;;;;;0.00;0.00;;;;;;;;;;7375363;19;20144;-69
2023/01/08 03:12:53;;;;;;;0.10;0.10;;;;;;;;;;7374490;19;20645;-69
2023/01/08 03:15:24;;;;;;;0.10;0.10;;;;;;;;;;7373827;19;20755;-69
2023/01/08 03:17:55;;;;;;;0.10;0.10;;;;;;;;;;7373336;19;20603;-69
2023/01/08 03:20:25;;;;;;;0.00;0.00;;;;;;;;;;7374303;19;20621;-70
2023/01/08 03:22:55;;;;;;;0.00;0.00;;;;;;;;;;7377358;19;20713;-70
2023/01/08 03:25:25;;;;;;;0.00;0.00;;;;;;;;;;7382763;19;20594;-70
2023/01/08 03:27:59;;;;;;;0.10;0.10;;;;;;;;;;7379596;19;20703;-70
2023/01/08 03:30:29;;;;;;;0.10;0.10;;;;;;;;;;7381158;19;20693;-70
2023/01/08 03:32:59;;;;;;;0.10;0.10;;;;;;;;;;7381931;19;20649;-70
2023/01/08 03:35:29;;;;;;;0.10;0.10;;;;;;;;;;7381355;19;20587;-69
2023/01/08 03:38:00;;;;;;;0.00;0.00;;;;;;;;;;7379205;19;20630;-69
2023/01/08 03:40:33;;;;;;;0.07;0.07;;;;;;;;;;7381880;19;20764;-69
2023/01/08 03:43:05;;;;;;;0.00;0.00;;;;;;;;;;7380953;19;20619;-69
2023/01/08 03:45:34;;;;;;;0.10;0.10;;;;;;;;;;7379847;19;20757;-69
2023/01/08 03:48:04;;;;;;;0.00;0.00;;;;;;;;;;7377590;19;20786;-69
2023/01/08 03:50:34;;;;;;;0.00;0.00;;;;;;;;;;7381877;19;20716;-69
2023/01/08 03:53:03;;;;;;;0.10;0.10;;;;;;;;;;7380027;19;20636;-69
2023/01/08 03:55:32;;;;;;;0.10;0.10;;;;;;;;;;7379217;19;20721;-69
2023/01/08 03:58:01;;;;;;;0.00;0.00;;;;;;;;;;7378591;19;20733;-70
2023/01/08 04:00:33;;;;;;;0.10;0.10;;;;;;;;;;7381337;19;20611;-69
2023/01/08 04:03:01;;;;;;;0.10;0.10;;;;;;;;;;7379837;19;20683;-70
2023/01/08 04:05:30;;;;;;;0.10;0.10;;;;;;;;;;7381256;19;20687;-69
2023/01/08 04:07:59;;;;;;;0.10;0.10;;;;;;;;;;7377704;19;20666;-69
2023/01/08 04:10:28;;;;;;;0.10;0.10;;;;;;;;;;7381141;19;20611;-69
2023/01/08 04:12:57;;;;;;;0.10;0.10;;;;;;;;;;7381443;19;20671;-70
2023/01/08 04:15:26;;;;;;;0.10;0.10;;;;;;;;;;7378477;19;20618;-70
2023/01/08 04:17:58;;;;;;;0.00;0.00;;;;;;;;;;7378948;19;20681;-70
2023/01/08 04:20:26;;;;;;;0.10;0.10;;;;;;;;;;7380282;19;20599;-70
2023/01/08 04:22:55;;;;;;;0.10;0.10;;;;;;;;;;7378415;19;20706;-70
2023/01/08 04:25:25;;;;;;;0.03;0.03;;;;;;;;;;7378631;19;20623;-69
2023/01/08 04:27:54;;;;;;;0.10;0.10;;;;;;;;;;7376642;19;20670;-69
2023/01/08 04:30:22;;;;;;;0.00;0.00;;;;;;;;;;7380133;19;20748;-69
2023/01/08 04:32:51;;;;;;;0.00;0.00;;;;;;;;;;7381147;19;20663;-69
2023/01/08 04:35:23;;;;;;;0.10;0.10;;;;;;;;;;7374978;19;20634;-69
2023/01/08 04:37:51;;;;;;;0.10;0.10;;;;;;;;;;7376030;19;20670;-69
2023/01/08 04:40:20;;;;;;;0.00;0.00;;;;;;;;;;7378004;19;20749;-69
2023/01/08 04:42:49;;;;;;;0.03;0.03;;;;;;;;;;7378792;19;20666;-69
2023/01/08 04:45:18;;;;;;;0.00;0.00;;;;;;;;;;7378062;19;20738;-70
2023/01/08 04:47:47;;;;;;;0.10;0.10;;;;;;;;;;7377895;19;20661;-69
2023/01/08 04:50:16;;;;;;;0.10;0.10;;;;;;;;;;7379376;19;20615;-69
2023/01/08 04:52:47;;;;;;;0.00;0.00;;;;;;;;;;7378370;19;20668;-70
2023/01/08 04:55:16;;;;;;;0.10;0.10;;;;;;;;;;7378081;19;20725;-69
2023/01/08 04:57:45;;;;;;;0.00;0.00;;;;;;;;;;7378962;19;20611;-70
2023/01/08 05:00:15;;;;;;;0.10;0.10;;;;;;;;;;7379079;19;20754;-69
2023/01/08 05:02:44;;;;;;;0.00;0.00;;;;;;;;;;7378337;19;20733;-69
2023/01/08 05:05:13;;;;;;;0.10;0.10;;;;;;;;;;7376739;19;20639;-70
2023/01/08 05:07:42;;;;;;;0.10;0.10;;;;;;;;;;7376819;19;20781;-69
2023/01/08 05:10:13;;;;;;;0.03;0.03;;;;;;;;;;7379234;19;20722;-68
2023/01/08 05:12:42;;;;;;;0.10;0.10;;;;;;;;;;7379092;19;20631;-69
2023/01/08 05:15:12;;;;;;;0.00;0.00;;;;;;;;;;7377140;19;20648;-69
2023/01/08 05:17:40;;;;;;;0.10;0.10;;;;;;;;;;7377496;19;20615;-70
2023/01/08 05:20:10;;;;;;;0.10;0.10;;;;;;;;;;7378489;19;20599;-69
2023/01/08 05:22:39;;;;;;;0.00;0.00;;;;;;;;;;7378488;19;20758;-69
2023/01/08 05:25:08;;;;;;;0.00;0.00;;;;;;;;;;7376041;19;20665;-70
2023/01/08 05:27:40;;;;;;;0.10;0.10;;;;;;;;;;7377043;19;20619;-69
2023/01/08 05:30:10;;;;;;;0.00;0.00;;;;;;;;;;7375585;19;20729;-69
2023/01/08 05:32:39;;;;;;;0.10;0.10;;;;;;;;;;7376855;19;20643;-69
2023/01/08 05:35:08;;;;;;;0.10;0.10;;;;;;;;;;7376921;19;20598;-69
2023/01/08 05:37:38;;;;;;;0.00;0.00;;;;;;;;;;7375948;19;20688;-69
2023/01/08 05:40:07;;;;;;;0.00;0.00;;;;;;;;;;7377315;19;21008;-70
2023/01/08 05:42:36;;;;;;;0.10;0.10;;;;;;;;;;7378648;19;20638;-69
2023/01/08 05:45:09;;;;;;;0.10;0.10;;;;;;;;;;7374956;19;20619;-69
2023/01/08 05:47:38;;;;;;;0.00;0.00;;;;;;;;;;7375305;19;20761;-69
2023/01/08 05:50:07;;;;;;;0.00;0.00;;;;;;;;;;7377458;19;20611;-69
2023/01/08 05:52:36;;;;;;;0.10;0.10;;;;;;;;;;7378812;19;20596;-69
2023/01/08 05:55:05;;;;;;;0.00;0.00;;;;;;;;;;7377084;19;20646;-70
2023/01/08 05:57:34;;;;;;;0.00;0.00;;;;;;;;;;7375348;19;20765;-69
2023/01/08 06:00:03;;;;;;;0.00;0.00;;;;;;;;;;7378253;19;21075;-69
2023/01/08 06:02:42;;;;;;;0.07;0.07;;;;;;;;;;7378377;19;20665;-69
2023/01/08 06:05:12;;;;;;;0.10;0.10;;;;;;;;;;7376508;19;20615;-68
2023/01/08 06:07:41;;;;;;;0.00;0.00;;;;;;;;;;7375741;19;20618;-70
2023/01/08 06:10:10;;;;;;;0.10;0.10;;;;;;;;;;7375490;19;20670;-69
2023/01/08 06:12:39;;;;;;;0.10;0.10;;;;;;;;;;7375298;19;20745;-69
2023/01/08 06:15:09;;;;;;;0.00;0.00;;;;;;;;;;7375209;19;20680;-69
2023/01/08 06:17:38;;;;;;;0.00;0.00;;;;;;;;;;7376555;19;20623;-68
2023/01/08 06:20:10;;;;;;;0.10;0.10;;;;;;;;;;7377005;19;20734;-69
2023/01/08 06:22:40;;;;;;;0.00;0.00;;;;;;;;;;7374838;19;20800;-69
2023/01/08 06:25:09;;;;;;;0.10;0.10;;;;;;;;;;7377317;19;20656;-69
2023/01/08 06:27:38;;;;;;;0.10;0.10;;;;;;;;;;7374218;19;20663;-69
2023/01/08 06:30:07;;;;;;;0.00;0.00;;;;;;;;;;7376104;19;20603;-69
2023/01/08 06:32:36;;;;;;;0.00;0.00;;;;;;;;;;7376947;19;20703;-69
2023/01/08 06:35:05;;;;;;;0.00;0.00;;;;;;;;;;7373158;19;20655;-69
2023/01/08 06:37:36;;;;;;;0.10;0.10;;;;;;;;;;7371019;19;20745;-69
2023/01/08 06:40:06;;;;;;;0.00;0.00;;;;;;;;;;7373222;19;20749;-69
2023/01/08 06:42:34;;;;;;;0.00;0.00;;;;;;;;;;7372371;19;20672;-70
2023/01/08 06:45:03;;;;;;;0.00;0.00;;;;;;;;;;7374171;19;20599;-69
2023/01/08 06:47:32;;;;;;;0.00;0.00;;;;;;;;;;7372937;19;20702;-70
2023/01/08 06:50:01;;;;;;;0.10;0.10;;;;;;;;;;7372963;19;20713;-69
2023/01/08 06:52:30;;;;;;;0.00;0.00;;;;;;;;;;7375923;19;20863;-70
2023/01/08 06:55:03;;;;;;;0.10;0.10;;;;;;;;;;7374310;19;20713;-70
2023/01/08 06:57:32;;;;;;;0.10;0.10;;;;;;;;;;7370147;19;20846;-69
2023/01/08 07:00:01;;;;;;;0.00;0.00;;;;;;;;;;7376379;19;20643;-70
2023/01/08 07:02:30;;;;;;;0.00;0.00;;;;;;;;;;7373020;19;20627;-69
2023/01/08 07:04:59;;;;;;;0.10;0.10;;;;;;;;;;7374215;19;20725;-69
2023/01/08 07:07:28;;;;;;;0.10;0.10;;;;;;;;;;7373986;19;20631;-70
2023/01/08 07:09:57;;;;;;;0.00;0.00;;;;;;;;;;7374043;19;20730;-69
2023/01/08 07:12:28;;;;;;;0.00;0.00;;;;;;;;;;7371895;19;20635;-69
2023/01/08 07:14:57;;;;;;;0.00;0.00;;;;;;;;;;7373790;19;20614;-69
2023/01/08 07:17:26;;;;;;;0.10;0.10;;;;;;;;;;7372938;19;20655;-69
2023/01/08 07:19:55;;;;;;;0.10;0.10;;;;;;;;;;7371819;19;20675;-69
2023/01/08 07:22:24;;;;;;;0.00;0.00;;;;;;;;;;7373668;19;20749;-70
2023/01/08 07:24:53;;;;;;;0.10;0.10;;;;;;;;;;7373742;19;20647;-69
2023/01/08 07:27:23;;;;;;;0.10;0.10;;;;;;;;;;7371962;19;20658;-69
2023/01/08 07:29:54;;;;;;;0.00;0.00;;;;;;;;;;7371424;19;20689;-69
2023/01/08 07:32:23;;;;;;;0.10;0.10;;;;;;;;;;7372467;19;20657;-69
2023/01/08 07:34:53;;;;;;;0.10;0.10;;;;;;;;;;7371687;19;20741;-70
2023/01/08 07:37:22;;;;;;;0.10;0.10;;;;;;;;;;7372472;19;20603;-70
2023/01/08 07:39:51;;;;;;;0.00;0.00;;;;;;;;;;7372012;19;20741;-69
2023/01/08 07:42:20;;;;;;;0.10;0.10;;;;;;;;;;7372272;19;20673;-69
2023/01/08 07:44:49;;;;;;;0.00;0.00;;;;;;;;;;7372477;19;20667;-69
2023/01/08 07:47:21;;;;;;;0.03;0.03;;;;;;;;;;7370741;19;20671;-70
2023/01/08 07:49:50;;;;;;;0.07;0.07;;;;;;;;;;7372924;19;20606;-69
2023/01/08 07:52:19;;;;;;;0.00;0.00;;;;;;;;;;7371604;19;20757;-70
2023/01/08 07:54:47;;;;;;;0.00;0.00;;;;;;;;;;7373537;19;20724;-70
2023/01/08 07:57:16;;;;;;;0.00;0.00;;;;;;;;;;7370528;19;20667;-70
2023/01/08 07:59:45;;;;;;;0.10;0.10;;;;;;;;;;7372339;19;20729;-69
2023/01/08 08:02:14;;;;;;;0.07;0.07;;;;;;;;;;7373280;19;20702;-70
2023/01/08 08:04:45;;;;;;;0.10;0.10;;;;;;;;;;7373023;19;20650;-69
2023/01/08 08:07:14;;;;;;;0.10;0.10;;;;;;;;;;7371995;19;20728;-69
2023/01/08 08:09:43;;;;;;;0.00;0.00;;;;;;;;;;7377369;19;20619;-69
2023/01/08 08:12:13;;;;;;;0.10;0.10;;;;;;;;;;7379203;19;20626;-69
2023/01/08 08:14:41;;;;;;;0.00;0.00;;;;;;;;;;7377609;19;20626;-68
2023/01/08 08:17:10;;;;;;;0.00;0.00;;;;;;;;;;7377211;19;20800;-69
2023/01/08 08:19:42;;;;;;;0.00;0.00;;;;;;;;;;7380311;19;20603;-68
2023/01/08 08:22:14;;;;;;;0.00;0.00;;;;;;;;;;7380847;19;20606;-69
2023/01/08 08:24:43;;;;;;;0.00;0.00;;;;;;;;;;7377799;19;20649;-69
2023/01/08 08:27:12;;;;;;;0.00;0.00;;;;;;;;;;7378871;19;21467;-69
2023/01/08 08:29:41;;;;;;;0.10;0.10;;;;;;;;;;7376570;19;20679;-69
2023/01/08 08:32:10;;;;;;;0.10;0.10;;;;;;;;;;7379139;19;20610;-69
2023/01/08 08:34:39;;;;;;;0.10;0.10;;;;;;;;;;7383381;19;20606;-69
2023/01/08 08:37:08;;;;;;;0.10;0.10;;;;;;;;;;7382014;19;20777;-70
2023/01/08 08:39:40;;;;;;;0.10;0.10;;;;;;;;;;7384538;19;20778;-68
2023/01/08 08:42:09;;;;;;;0.03;0.03;;;;;;;;;;7380521;19;20639;-69
2023/01/08 08:44:38;;;;;;;0.03;0.03;;;;;;;;;;7378319;19;20687;-69
2023/01/08 08:47:09;;;;;;;0.00;0.00;;;;;;;;;;7378538;19;21346;-69
2023/01/08 08:49:38;;;;;;;0.10;0.10;;;;;;;;;;7377853;19;20632;-69
2023/01/08 08:52:07;;;;;;;0.00;0.00;;;;;;;;;;7379378;19;20603;-69
2023/01/08 08:54:40;;;;;;;0.00;0.00;;;;;;;;;;7378658;19;20712;-69
2023/01/08 08:57:09;;;;;;;0.10;0.10;;;;;;;;;;7378591;19;20696;-69
2023/01/08 08:59:38;;;;;;;0.10;0.10;;;;;;;;;;7377667;19;20649;-69
2023/01/08 09:02:07;;;;;;;0.10;0.10;;;;;;;;;;7377487;19;20720;-70
2023/01/08 09:04:36;;;;;;;0.00;0.00;;;;;;;;;;7379334;19;20740;-69
2023/01/08 09:07:05;;;;;;;0.10;0.10;;;;;;;;;;7378480;19;20615;-70
2023/01/08 09:09:34;;;;;;;0.10;0.10;;;;;;;;;;7374489;19;20646;-69
2023/01/08 09:12:06;;;;;;;0.03;0.03;;;;;;;;;;7377852;19;20686;-69
2023/01/08 09:14:35;;;;;;;0.00;0.00;;;;;;;;;;7378641;19;20599;-69
2023/01/08 09:17:04;;;;;;;0.10;0.10;;;;;;;;;;7377074;19;21112;-69
2023/01/08 09:19:33;;;;;;;0.10;0.10;;;;;;;;;;7377826;19;20647;-69
2023/01/08 09:22:03;;;;;;;0.00;0.00;;;;;;;;;;7377855;19;20692;-71
2023/01/08 09:24:33;;;;;;;0.00;0.00;;;;;;;;;;7377548;19;20661;-70
2023/01/08 09:27:02;;;;;;;0.00;0.00;;;;;;;;;;7375971;19;20739;-69
2023/01/08 09:29:34;;;;;;;0.10;0.10;;;;;;;;;;7374172;19;20687;-70
2023/01/08 09:32:05;;;;;;;0.00;0.00;;;;;;;;;;7377601;19;20657;-70
2023/01/08 09:34:35;;;;;;;0.10;0.10;;;;;;;;;;7376605;19;20706;-70
2023/01/08 09:37:03;;;;;;;0.10;0.10;;;;;;;;;;7374151;19;20654;-71
2023/01/08 09:39:33;;;;;;;0.10;0.10;;;;;;;;;;7378220;19;20571;-70
2023/01/08 09:42:03;;;;;;;0.10;0.10;;;;;;;;;;7375928;19;20695;-69
2023/01/08 09:44:37;;;;;;;0.10;0.10;;;;;;;;;;7376807;19;20587;-69
2023/01/08 09:47:06;;;;;;;0.10;0.10;;;;;;;;;;7375191;19;20646;-70
2023/01/08 09:49:39;;;;;;;0.10;0.10;;;;;;;;;;7375660;19;20780;-70
2023/01/08 09:52:08;;;;;;;0.10;0.10;;;;;;;;;;7377561;19;20641;-69
2023/01/08 09:54:36;;;;;;;0.00;0.00;;;;;;;;;;7375274;19;20733;-68
2023/01/08 09:57:05;;;;;;;0.00;0.00;;;;;;;;;;7377139;19;20693;-69
2023/01/08 09:59:37;;;;;;;0.10;0.10;;;;;;;;;;7376186;19;20749;-69
2023/01/08 10:02:06;;;;;;;0.00;0.00;;;;;;;;;;7376325;19;20737;-69
2023/01/08 10:04:35;;;;;;;0.10;0.10;;;;;;;;;;7374868;19;20639;-68
2023/01/08 10:07:14;;;;;;;0.00;0.00;;;;;;;;;;7376493;19;20642;-69
2023/01/08 10:09:43;;;;;;;0.10;0.10;;;;;;;;;;7375972;19;20655;-68
2023/01/08 10:12:14;;;;;;;0.10;0.10;;;;;;;;;;7376368;19;20722;-68
2023/01/08 10:14:49;;;;;;;0.00;0.00;;;;;;;;;;7374365;19;20607;-68
2023/01/08 10:17:23;;;;;;;0.00;0.00;;;;;;;;;;7375991;19;20674;-68
2023/01/08 10:19:52;;;;;;;0.00;0.00;;;;;;;;;;7376868;19;20632;-69
2023/01/08 10:22:22;;;;;;;0.10;0.10;;;;;;;;;;7375843;19;20706;-69
2023/01/08 10:24:51;;;;;;;0.00;0.00;;;;;;;;;;7374306;19;20763;-68
2023/01/08 10:27:21;;;;;;;0.10;0.10;;;;;;;;;;7375423;19;20745;-69
2023/01/08 10:29:54;;;;;;;0.10;0.10;;;;;;;;;;7374193;19;20627;-67
2023/01/08 10:32:28;;;;;;;0.00;0.00;;;;;;;;;;7374401;19;20598;-67
2023/01/08 10:34:58;;;;;;;0.10;0.10;;;;;;;;;;7375130;19;20666;-68
2023/01/08 10:37:29;;;;;;;0.00;0.00;;;;;;;;;;7374344;19;20778;-68
2023/01/08 10:40:01;;;;;;;0.00;0.00;;;;;;;;;;7374590;19;20618;-68
2023/01/08 10:42:31;;;;;;;0.00;0.00;;;;;;;;;;7375399;19;20726;-67
2023/01/08 10:45:05;;;;;;;0.00;0.00;;;;;;;;;;7376328;19;20721;-67
2023/01/08 10:47:36;;;;;;;0.07;0.07;;;;;;;;;;7374325;19;20746;-68
2023/01/08 10:50:06;;;;;;;0.10;0.10;;;;;;;;;;7372293;19;20681;-68
2023/01/08 10:52:35;;;;;;;0.00;0.00;;;;;;;;;;7374314;19;20619;-67
2023/01/08 10:55:14;;;;;;;0.00;0.00;;;;;;;;;;7375724;19;20655;-68
2023/01/08 10:57:44;;;;;;;0.00;0.00;;;;;;;;;;7373551;19;20738;-67
2023/01/08 11:00:28;;;;;;;0.00;0.00;;;;;;;;;;7375637;19;20599;-68
2023/01/08 11:02:58;;;;;;;0.10;0.10;;;;;;;;;;7375433;19;20595;-67
2023/01/08 11:05:37;;;;;;;0.10;0.10;;;;;;;;;;7373678;19;20751;-67
2023/01/08 11:08:08;;;;;;;0.00;0.00;;;;;;;;;;7372311;19;20799;-67
2023/01/08 11:10:38;;;;;;;0.00;0.00;;;;;;;;;;7374132;19;20730;-68
2023/01/08 11:13:09;;;;;;;0.10;0.10;;;;;;;;;;7373681;19;20661;-68
2023/01/08 11:15:42;;;;;;;0.10;0.10;;;;;;;;;;7375252;19;20662;-67
2023/01/08 11:18:18;;;;;;;0.00;0.00;;;;;;;;;;7373055;19;20619;-67
2023/01/08 11:20:47;;;;;;;0.00;0.00;;;;;;;;;;7372184;19;20622;-67
2023/01/08 11:23:21;;;;;;;0.10;0.10;;;;;;;;;;7373326;19;21085;-67
2023/01/08 11:25:54;;;;;;;0.00;0.00;;;;;;;;;;7374326;19;20664;-67
2023/01/08 11:28:26;;;;;;;0.00;0.00;;;;;;;;;;7370630;19;20662;-67
2023/01/08 11:31:06;;;;;;;0.10;0.10;;;;;;;;;;7371665;19;20648;-67
2023/01/08 11:33:35;;;;;;;0.00;0.00;;;;;;;;;;7374109;19;20595;-67
2023/01/08 11:36:07;;;;;;;0.00;0.00;;;;;;;;;;7371503;19;20772;-68
2023/01/08 11:38:36;;;;;;;0.00;0.00;;;;;;;;;;7373656;19;20642;-67
2023/01/08 11:41:09;;;;;;;0.10;0.10;;;;;;;;;;7371638;19;20755;-68
2023/01/08 11:43:43;;;;;;;0.00;0.00;;;;;;;;;;7376991;19;20713;-67
2023/01/08 11:46:21;;;;;;;0.00;0.00;;;;;;;;;;7377086;19;20656;-67
2023/01/08 11:49:05;;;;;;;0.00;0.00;;;;;;;;;;7381795;19;20595;-67
2023/01/08 11:51:41;;;;;;;0.00;0.00;;;;;;;;;;7378206;19;20849;-67
2023/01/08 11:54:17;;;;;;;0.00;0.00;;;;;;;;;;7378620;19;20657;-67
2023/01/08 11:56:51;;;;;;;0.00;0.00;;;;;;;;;;7380520;19;20764;-67
2023/01/08 11:59:24;;;;;;;0.00;0.00;;;;;;;;;;7379985;19;20667;-67
2023/01/08 12:02:02;;;;;;;0.00;0.00;;;;;;;;;;7380040;19;21440;-67
2023/01/08 12:04:40;;;;;;;0.00;0.00;;;;;;;;;;7379884;19;20591;-67
2023/01/08 12:07:16;;;;;;;0.10;0.10;;;;;;;;;;7379638;19;20707;-67
2023/01/08 12:09:47;;;;;;;0.00;0.00;;;;;;;;;;7378609;19;20733;-67
2023/01/08 12:12:21;;;;;;;0.10;0.10;;;;;;;;;;7381673;19;20611;-67
2023/01/08 12:14:56;;;;;;;0.10;0.10;;;;;;;;;;7378355;19;20671;-68
2023/01/08 12:17:41;;;;;;;0.03;0.03;;;;;;;;;;7378998;19;21290;-68
2023/01/08 12:20:18;;;;;;;0.10;0.10;;;;;;;;;;7379431;19;20611;-67
2023/01/08 12:22:49;;;;;;;0.00;0.00;;;;;;;;;;7378032;19;21083;-67
2023/01/08 12:25:30;;;;;;;0.00;0.00;;;;;;;;;;7379615;19;20733;-67
2023/01/08 12:28:10;;;;;;;0.00;0.00;;;;;;;;;;7377561;19;20667;-67
2023/01/08 12:30:46;;;;;;;0.00;0.00;;;;;;;;;;7377535;19;20638;-68
2023/01/08 12:33:22;;;;;;;0.10;0.10;;;;;;;;;;7378915;19;20606;-68
2023/01/08 12:35:53;;;;;;;0.10;0.10;;;;;;;;;;7377718;19;20699;-67
2023/01/08 12:38:24;;;;;;;0.00;0.00;;;;;;;;;;7375512;19;20654;-68
2023/01/08 12:40:54;;;;;;;0.00;0.00;;;;;;;;;;7379941;19;20632;-67
2023/01/08 12:43:25;;;;;;;0.10;0.10;;;;;;;;;;7379082;19;20613;-67
2023/01/08 12:45:56;;;;;;;0.00;0.00;;;;;;;;;;7379352;19;20737;-68
2023/01/08 12:48:29;;;;;;;0.10;0.10;;;;;;;;;;7376131;19;20687;-68
2023/01/08 12:51:04;;;;;;;0.00;0.00;;;;;;;;;;7375629;19;20638;-67
2023/01/08 12:53:39;;;;;;;0.00;0.00;;;;;;;;;;7377195;19;20682;-67
2023/01/08 12:56:13;;;;;;;0.00;0.00;;;;;;;;;;7375993;19;20622;-67
2023/01/08 12:58:51;;;;;;;0.10;0.10;;;;;;;;;;7378822;19;20635;-67
2023/01/08 13:01:27;;;;;;;0.00;0.00;;;;;;;;;;7379357;19;20706;-67
2023/01/08 13:04:00;;;;;;;0.00;0.00;;;;;;;;;;7377948;19;20587;-67
2023/01/08 13:06:29;;;;;;;0.00;0.00;;;;;;;;;;7377152;19;20618;-68
2023/01/08 13:08:59;;;;;;;0.00;0.00;;;;;;;;;;7375564;19;20630;-66
2023/01/08 13:11:30;;;;;;;0.00;0.00;;;;;;;;;;7372955;19;20639;-66
2023/01/08 13:14:02;;;;;;;0.00;0.00;;;;;;;;;;7376235;19;20633;-66
2023/01/08 13:16:32;;;;;;;0.10;0.10;;;;;;;;;;7374740;19;20757;-67
2023/01/08 13:19:04;;;;;;;0.10;0.10;;;;;;;;;;7375707;19;20618;-66
2023/01/08 13:21:35;;;;;;;0.00;0.00;;;;;;;;;;7376055;19;20672;-67
2023/01/08 13:24:06;;;;;;;0.10;0.10;;;;;;;;;;7377488;19;20607;-67
2023/01/08 13:26:36;;;;;;;0.00;0.00;;;;;;;;;;7376103;19;20689;-66
2023/01/08 13:29:10;;;;;;;0.00;0.00;;;;;;;;;;7376483;19;20757;-67
2023/01/08 13:31:44;;;;;;;0.03;0.03;;;;;;;;;;7374893;19;20631;-68
2023/01/08 13:34:38;;;;;;;0.00;0.00;;;;;;;;;;7377574;19;20655;-67
2023/01/08 13:37:07;;;;;;;0.10;0.10;;;;;;;;;;7377100;19;20659;-67
2023/01/08 13:39:37;;;;;;;0.00;0.00;;;;;;;;;;7378345;19;20629;-67
2023/01/08 13:42:18;;;;;;;0.00;0.00;;;;;;;;;;7378340;19;20603;-67
2023/01/08 13:44:50;;;;;;;0.10;0.10;;;;;;;;;;7375296;19;20693;-66
2023/01/08 13:47:21;;;;;;;0.10;0.10;;;;;;;;;;7376050;19;20742;-67
2023/01/08 13:49:54;;;;;;;0.00;0.00;;;;;;;;;;7374793;19;20753;-69
2023/01/08 13:52:31;;;;;;;0.10;0.10;;;;;;;;;;7375970;19;20600;-66
2023/01/08 13:55:00;;;;;;;0.10;0.10;;;;;;;;;;7373525;19;20675;-66
2023/01/08 13:57:40;;;;;;;0.00;0.00;;;;;;;;;;7376931;19;20638;-67
2023/01/08 14:00:10;;;;;;;0.10;0.10;;;;;;;;;;7376043;19;20763;-66
2023/01/08 14:02:49;;;;;;;0.10;0.10;;;;;;;;;;7375971;19;20176;-69
2023/01/08 14:05:33;;;;;;;0.00;0.00;;;;;;;;;;7374381;19;20619;-68
2023/01/08 14:08:02;;;;;;;0.00;0.00;;;;;;;;;;7372943;19;20697;-68
2023/01/08 14:10:32;;;;;;;0.10;0.10;;;;;;;;;;7375967;19;20615;-68
2023/01/08 14:13:07;;;;;;;0.00;0.00;;;;;;;;;;7373698;19;20626;-67
2023/01/08 14:15:37;;;;;;;0.03;0.03;;;;;;;;;;7374819;19;20736;-68
2023/01/08 14:18:07;;;;;;;0.10;0.10;;;;;;;;;;7374061;19;20643;-67
2023/01/08 14:20:40;;;;;;;0.00;0.00;;;;;;;;;;7376335;19;20657;-67
2023/01/08 14:23:12;;;;;;;0.10;0.10;;;;;;;;;;7374111;19;20733;-67
2023/01/08 14:25:42;;;;;;;0.00;0.00;;;;;;;;;;7374771;19;20639;-68
2023/01/08 14:28:18;;;;;;;0.10;0.10;;;;;;;;;;7371706;19;20665;-68
2023/01/08 14:30:50;;;;;;;0.00;0.00;;;;;;;;;;7374188;19;20607;-68
2023/01/08 14:33:21;;;;;;;0.00;0.00;;;;;;;;;;7371997;19;20755;-67
2023/01/08 14:35:54;;;;;;;0.03;0.03;;;;;;;;;;7375560;19;20592;-67
2023/01/08 14:38:23;;;;;;;0.03;0.03;;;;;;;;;;7374129;19;20620;-66
2023/01/08 14:40:53;;;;;;;0.00;0.00;;;;;;;;;;7375323;19;20587;-66
2023/01/08 14:43:23;;;;;;;0.00;0.00;;;;;;;;;;7377523;19;20571;-67
2023/01/08 14:45:53;;;;;;;0.10;0.10;;;;;;;;;;7374422;19;20611;-67
2023/01/08 14:48:24;;;;;;;0.10;0.10;;;;;;;;;;7373586;19;20777;-67
2023/01/08 14:51:03;;;;;;;0.00;0.00;;;;;;;;;;7372955;19;20655;-67
2023/01/08 14:53:34;;;;;;;0.10;0.10;;;;;;;;;;7376019;19;20651;-67
2023/01/08 14:56:03;;;;;;;0.00;0.00;;;;;;;;;;7372779;19;20749;-67
2023/01/08 14:58:37;;;;;;;0.00;0.00;;;;;;;;;;7374391;19;20745;-66
2023/01/08 15:01:08;;;;;;;0.00;0.00;;;;;;;;;;7375194;19;20591;-67
2023/01/08 15:03:39;;;;;;;0.10;0.10;;;;;;;;;;7373639;19;20631;-67
2023/01/08 15:06:12;;;;;;;0.00;0.00;;;;;;;;;;7373689;19;20614;-66
2023/01/08 15:08:42;;;;;;;0.10;0.10;;;;;;;;;;7374669;19;20634;-67